createdAt,value
2023-02-08T00:00:18.280Z,76.05
2023-02-08T00:03:24.603Z,76.05
2023-02-08T00:06:29.292Z,76.10
2023-02-08T00:09:35.820Z,76.03
2023-02-08T00:12:42.168Z,75.85
2023-02-08T00:15:47.501Z,76.06
2023-02-08T00:18:53.693Z,76.10
2023-02-08T00:21:59.916Z,76.12
2023-02-08T00:25:06.506Z,76.22
2023-02-08T00:28:16.355Z,76.07
2023-02-08T00:31:22.556Z,76.30
2023-02-08T00:34:28.857Z,76.07
2023-02-08T00:37:33.408Z,76.04
2023-02-08T00:40:39.843Z,76.09
2023-02-08T00:43:46.174Z,76.18
2023-02-08T00:46:52.454Z,76.19
2023-02-08T00:49:56.861Z,76.37
2023-02-08T00:53:03.041Z,76.17
2023-02-08T00:56:11.366Z,76.21
2023-02-08T00:59:17.709Z,76.16
2023-02-08T01:02:22.198Z,76.31
2023-02-08T01:05:28.362Z,76.36
2023-02-08T01:08:34.605Z,76.42
2023-02-08T01:11:39.308Z,76.50
2023-02-08T01:14:45.691Z,76.47
2023-02-08T01:17:56.646Z,76.38
2023-02-08T01:21:09.240Z,76.44
2023-02-08T01:24:15.452Z,76.54
2023-02-08T01:27:21.708Z,76.40
2023-02-08T01:30:26.320Z,76.48
2023-02-08T01:33:32.631Z,76.49
2023-02-08T01:36:37.478Z,76.62
2023-02-08T01:39:43.603Z,76.89
2023-02-08T01:42:49.842Z,76.63
2023-02-08T01:45:54.413Z,76.77
2023-02-08T01:49:04.022Z,76.60
2023-02-08T01:52:14.106Z,76.82
2023-02-08T01:55:26.328Z,76.81
2023-02-08T01:58:37.823Z,76.73
2023-02-08T02:01:46.581Z,76.79
2023-02-08T02:04:54.654Z,76.72
2023-02-08T02:08:01.841Z,76.76
2023-02-08T02:11:08.395Z,76.80
2023-02-08T02:14:15.942Z,76.68
2023-02-08T02:17:22.924Z,76.92
2023-02-08T02:20:40.088Z,76.85
2023-02-08T02:24:27.723Z,76.85
2023-02-08T02:27:48.900Z,76.72
2023-02-08T02:31:22.901Z,76.87
2023-02-08T02:34:38.441Z,76.91
2023-02-08T02:38:10.376Z,77.01
2023-02-08T02:41:38.724Z,77.07
2023-02-08T02:44:53.866Z,77.00
2023-02-08T02:48:07.262Z,76.86
2023-02-08T02:51:18.685Z,76.87
2023-02-08T02:54:30.953Z,76.94
2023-02-08T02:57:39.116Z,77.07
2023-02-08T03:00:46.226Z,76.98
2023-02-08T03:03:53.667Z,77.00
2023-02-08T03:07:10.397Z,77.06
2023-02-08T03:10:33.154Z,77.15
2023-02-08T03:13:52.513Z,77.15
2023-02-08T03:17:19.794Z,77.10
2023-02-08T03:20:31.380Z,77.25
2023-02-08T03:23:43.009Z,77.18
2023-02-08T03:26:57.529Z,77.35
2023-02-08T03:30:11.067Z,77.32
2023-02-08T03:33:21.426Z,77.30
2023-02-08T03:36:33.147Z,77.36
2023-02-08T03:39:41.543Z,77.43
2023-02-08T03:42:50.208Z,77.39
2023-02-08T03:46:03.532Z,77.19
2023-02-08T03:49:14.545Z,77.30
2023-02-08T03:52:20.868Z,77.48
2023-02-08T03:55:27.303Z,77.44
2023-02-08T03:58:39.825Z,77.62
2023-02-08T04:01:50.258Z,77.56
2023-02-08T04:04:58.298Z,77.47
2023-02-08T04:08:04.735Z,77.33
2023-02-08T04:11:11.340Z,77.32
2023-02-08T04:14:17.658Z,77.54
2023-02-08T04:17:22.724Z,77.66
2023-02-08T04:20:29.108Z,77.65
2023-02-08T04:23:35.337Z,77.58
2023-02-08T04:26:41.594Z,77.59
2023-02-08T04:29:46.135Z,77.53
2023-02-08T04:32:52.295Z,77.55
2023-02-08T04:35:58.459Z,77.64
2023-02-08T04:39:04.964Z,77.57
2023-02-08T04:42:11.397Z,77.86
2023-02-08T04:45:17.605Z,77.65
2023-02-08T04:48:24.118Z,77.73
2023-02-08T04:51:30.387Z,77.82
2023-02-08T04:54:35.200Z,77.72
2023-02-08T04:57:41.365Z,77.82
2023-02-08T05:00:46.081Z,77.79
2023-02-08T05:03:52.350Z,77.76
2023-02-08T05:06:56.959Z,77.84
2023-02-08T05:10:03.682Z,77.76
2023-02-08T05:13:10.021Z,77.77
2023-02-08T05:16:14.527Z,77.91
2023-02-08T05:19:20.823Z,77.80
2023-02-08T05:22:25.329Z,77.93
2023-02-08T05:25:31.594Z,78.06
2023-02-08T05:28:36.152Z,77.93
2023-02-08T05:31:42.648Z,77.86
2023-02-08T05:34:49.149Z,77.75
2023-02-08T05:37:55.383Z,77.79
2023-02-08T05:41:01.691Z,78.07
2023-02-08T05:44:06.384Z,77.78
2023-02-08T05:47:12.712Z,77.72
2023-02-08T05:50:17.507Z,77.99
2023-02-08T05:53:23.992Z,77.98
2023-02-08T05:56:30.559Z,78.21
2023-02-08T05:59:36.736Z,78.22
2023-02-08T06:02:43.062Z,77.99
2023-02-08T06:05:47.659Z,78.11
2023-02-08T06:08:53.886Z,78.04
2023-02-08T06:12:00.123Z,78.18
2023-02-08T06:15:04.959Z,78.15
2023-02-08T06:18:11.834Z,78.04
2023-02-08T06:21:18.106Z,78.08
2023-02-08T06:24:25.412Z,78.25
2023-02-08T06:27:31.721Z,78.16
2023-02-08T06:30:36.228Z,78.14
2023-02-08T06:33:42.452Z,78.17
2023-02-08T06:36:48.725Z,78.29
2023-02-08T06:39:53.302Z,78.12
2023-02-08T06:42:59.465Z,78.34
2023-02-08T06:46:08.653Z,78.22
2023-02-08T06:49:15.505Z,78.14
2023-02-08T06:52:22.569Z,78.31
2023-02-08T06:55:28.812Z,78.46
2023-02-08T06:58:33.288Z,78.33
2023-02-08T07:01:39.605Z,78.49
2023-02-08T07:04:44.092Z,78.41
2023-02-08T07:07:50.352Z,78.50
2023-02-08T07:10:54.939Z,78.66
2023-02-08T07:14:01.135Z,78.59
2023-02-08T07:17:07.401Z,78.59
2023-02-08T07:20:13.086Z,78.60
2023-02-08T07:23:19.373Z,78.57
2023-02-08T07:26:23.857Z,78.82
2023-02-08T07:29:32.345Z,78.87
2023-02-08T07:32:38.633Z,78.76
2023-02-08T07:35:43.290Z,78.77
2023-02-08T07:38:49.526Z,78.62
2023-02-08T07:41:56.134Z,78.74
2023-02-08T07:45:02.300Z,78.70
2023-02-08T07:48:08.639Z,78.60
2023-02-08T07:51:15.655Z,78.74
2023-02-08T07:54:21.913Z,78.52
2023-02-08T07:57:28.273Z,78.59
2023-02-08T08:00:32.922Z,78.59
2023-02-08T08:03:39.220Z,78.49
2023-02-08T08:06:43.779Z,78.49
2023-02-08T08:09:50.505Z,78.55
2023-02-08T08:12:56.788Z,78.73
2023-02-08T08:16:01.389Z,78.51
2023-02-08T08:19:08.013Z,78.51
2023-02-08T08:22:14.335Z,78.75
2023-02-08T08:25:18.946Z,78.71
2023-02-08T08:28:25.337Z,78.86
2023-02-08T08:31:32.159Z,78.91
2023-02-08T08:34:38.357Z,78.99
2023-02-08T08:37:44.540Z,79.13
2023-02-08T08:40:50.813Z,79.16
2023-02-08T08:43:55.540Z,79.18
2023-02-08T08:47:02.245Z,79.00
2023-02-08T08:50:09.589Z,78.58
2023-02-08T08:53:15.920Z,78.49
2023-02-08T08:56:20.464Z,78.89
2023-02-08T08:59:27.154Z,78.81
2023-02-08T09:02:33.397Z,78.40
2023-02-08T09:05:39.668Z,78.52
2023-02-08T09:08:46.008Z,78.62
2023-02-08T09:11:50.913Z,78.55
2023-02-08T09:14:57.167Z,78.81
2023-02-08T09:18:03.336Z,78.59
2023-02-08T09:21:12.120Z,78.44
2023-02-08T09:24:19.441Z,78.62
2023-02-08T09:27:25.602Z,78.32
2023-02-08T09:30:31.834Z,78.19
2023-02-08T09:33:38.273Z,78.36
2023-02-08T09:36:44.891Z,78.41
2023-02-08T09:39:51.175Z,78.65
2023-02-08T09:43:09.764Z,78.46
2023-02-08T09:46:21.539Z,78.43
2023-02-08T09:49:33.530Z,78.02
2023-02-08T09:52:43.837Z,78.08
2023-02-08T09:55:53.130Z,78.26
2023-02-08T09:59:00.598Z,78.10
2023-02-08T10:02:18.724Z,77.99
2023-02-08T10:05:28.569Z,78.02
2023-02-08T10:08:36.345Z,77.79
2023-02-08T10:11:58.342Z,77.47
2023-02-08T10:15:14.320Z,77.22
2023-02-08T10:18:34.591Z,77.22
2023-02-08T10:21:53.725Z,77.22
2023-02-08T10:25:17.579Z,76.95
2023-02-08T10:28:35.409Z,76.95
2023-02-08T10:32:02.652Z,76.93
2023-02-08T10:35:14.321Z,76.86
2023-02-08T10:38:44.024Z,76.86
2023-02-08T10:41:52.341Z,76.45
2023-02-08T10:45:19.056Z,76.38
2023-02-08T10:48:46.470Z,76.25
2023-02-08T10:51:54.264Z,76.19
2023-02-08T10:55:01.194Z,76.01
2023-02-08T10:58:08.323Z,76.03
2023-02-08T11:01:14.730Z,75.89
2023-02-08T11:04:21.704Z,75.74
2023-02-08T11:07:28.252Z,75.82
2023-02-08T11:10:36.767Z,75.51
2023-02-08T11:13:44.617Z,75.35
2023-02-08T11:16:55.805Z,75.37
2023-02-08T11:20:02.654Z,75.36
2023-02-08T11:23:23.896Z,75.18
2023-02-08T11:26:35.724Z,74.78
2023-02-08T11:29:41.881Z,74.82
2023-02-08T11:32:49.477Z,74.46
2023-02-08T11:36:07.671Z,74.60
2023-02-08T11:39:24.410Z,74.38
2023-02-08T11:42:36.124Z,74.10
2023-02-08T11:45:46.762Z,74.15
2023-02-08T11:48:55.378Z,74.14
2023-02-08T11:52:01.738Z,73.91
2023-02-08T11:55:24.931Z,73.78
2023-02-08T11:58:31.542Z,73.62
2023-02-08T12:01:39.779Z,73.60
2023-02-08T12:04:46.077Z,73.52
2023-02-08T12:08:07.806Z,73.41
2023-02-08T12:11:25.301Z,73.32
2023-02-08T12:14:46.997Z,72.89
2023-02-08T12:18:15.225Z,72.58
2023-02-08T12:21:26.820Z,72.48
2023-02-08T12:24:42.645Z,72.57
2023-02-08T12:27:56.285Z,72.33
2023-02-08T12:31:08.869Z,72.06
2023-02-08T12:34:21.903Z,72.23
2023-02-08T12:37:54.108Z,72.03
2023-02-08T12:41:08.544Z,71.84
2023-02-08T12:44:24.529Z,71.84
2023-02-08T12:47:49.269Z,71.67
2023-02-08T12:51:07.103Z,71.57
2023-02-08T12:54:17.149Z,71.27
2023-02-08T12:57:26.062Z,70.97
2023-02-08T13:00:38.454Z,71.17
2023-02-08T13:03:50.398Z,70.77
2023-02-08T13:07:03.475Z,70.69
2023-02-08T13:10:17.323Z,70.77
2023-02-08T13:13:27.009Z,70.46
2023-02-08T13:16:39.556Z,70.26
2023-02-08T13:20:00.214Z,70.42
2023-02-08T13:23:14.153Z,70.22
2023-02-08T13:26:24.857Z,70.25
2023-02-08T13:29:33.626Z,70.15
2023-02-08T13:32:44.310Z,69.96
2023-02-08T13:35:54.992Z,69.97
2023-02-08T13:39:03.505Z,69.62
2023-02-08T13:42:21.664Z,69.61
2023-02-08T13:45:34.329Z,69.35
2023-02-08T13:48:53.122Z,69.42
2023-02-08T13:51:59.884Z,69.07
2023-02-08T13:55:46.110Z,69.19
2023-02-08T13:59:05.831Z,69.07
2023-02-08T14:02:26.910Z,68.85
2023-02-08T14:05:48.543Z,68.60
2023-02-08T14:09:02.156Z,68.51
2023-02-08T14:12:14.512Z,68.12
2023-02-08T14:15:37.860Z,68.24
2023-02-08T14:18:55.497Z,68.33
2023-02-08T14:22:07.055Z,68.12
2023-02-08T14:40:48.391Z,67.99
2023-02-08T14:43:54.635Z,67.62
2023-02-08T14:47:00.981Z,67.56
2023-02-08T14:50:07.523Z,67.53
2023-02-08T14:53:26.370Z,67.22
2023-02-08T14:56:35.048Z,67.24
2023-02-08T14:59:42.856Z,67.11
2023-02-08T15:02:50.549Z,67.12
2023-02-08T15:06:34.602Z,67.01
2023-02-08T15:09:43.900Z,66.90
2023-02-08T15:12:53.692Z,66.78
2023-02-08T15:16:01.622Z,66.80
2023-02-08T15:19:09.464Z,66.73
2023-02-08T15:22:31.240Z,66.64
2023-02-08T15:25:38.452Z,66.74
2023-02-08T15:28:47.722Z,66.61
2023-02-08T15:31:55.079Z,66.44
2023-02-08T15:35:02.981Z,66.46
2023-02-08T15:38:16.946Z,66.47
2023-02-08T15:41:30.521Z,66.40
2023-02-08T15:44:37.390Z,66.36
2023-02-08T15:47:43.697Z,66.31
2023-02-08T15:50:48.791Z,66.38
2023-02-08T15:53:56.877Z,66.36
2023-02-08T15:57:06.938Z,66.37
2023-02-08T16:00:19.304Z,66.51
2023-02-08T16:03:28.083Z,67.03
2023-02-08T16:06:39.004Z,66.84
2023-02-08T16:09:49.692Z,66.61
2023-02-08T16:12:58.623Z,66.59
2023-02-08T16:16:20.045Z,66.60
2023-02-08T16:19:29.506Z,66.62
2023-02-08T16:22:35.786Z,66.49
2023-02-08T16:25:45.334Z,66.74
2023-02-08T16:28:58.260Z,66.90
2023-02-08T16:32:11.982Z,66.67
2023-02-08T16:35:25.882Z,66.77
2023-02-08T16:38:34.924Z,66.84
2023-02-08T16:42:16.062Z,66.75
2023-02-08T16:45:23.693Z,66.72
2023-02-08T16:48:36.181Z,66.77
2023-02-08T16:51:47.584Z,66.66
2023-02-08T16:54:53.977Z,66.71
2023-02-08T16:58:01.141Z,66.75
2023-02-08T17:01:07.978Z,66.81
2023-02-08T17:04:14.264Z,66.77
2023-02-08T17:07:19.499Z,66.82
2023-02-08T17:10:29.890Z,67.01
2023-02-08T17:13:36.526Z,66.94
2023-02-08T17:16:44.066Z,66.92
2023-02-08T17:19:50.357Z,66.81
2023-02-08T17:22:55.398Z,66.78
2023-02-08T17:26:01.738Z,66.87
2023-02-08T17:29:06.775Z,67.03
2023-02-08T17:32:13.042Z,67.18
2023-02-08T17:35:18.553Z,67.09
2023-02-08T17:38:24.780Z,67.16
2023-02-08T17:41:31.030Z,67.09
2023-02-08T17:44:35.721Z,67.14
2023-02-08T17:47:42.497Z,67.24
2023-02-08T17:50:51.168Z,67.07
2023-02-08T17:53:57.385Z,66.92
2023-02-08T17:57:01.888Z,67.01
2023-02-08T18:00:12.428Z,66.97
2023-02-08T18:03:18.726Z,67.05
2023-02-08T18:06:24.398Z,67.22
2023-02-08T18:09:30.731Z,67.24
2023-02-08T18:12:37.473Z,67.52
2023-02-08T18:15:44.066Z,67.68
2023-02-08T18:18:50.663Z,67.58
2023-02-08T18:21:56.962Z,67.29
2023-02-08T18:25:01.549Z,67.09
2023-02-08T18:28:08.472Z,67.05
2023-02-08T18:31:20.259Z,67.01
2023-02-08T18:34:26.827Z,67.08
2023-02-08T18:37:32.183Z,67.12
2023-02-08T18:40:38.680Z,67.20
2023-02-08T18:43:45.064Z,67.58
2023-02-08T18:46:51.363Z,67.54
2023-02-08T18:49:58.786Z,67.47
2023-02-08T18:53:05.264Z,67.31
2023-02-08T18:56:13.751Z,67.58
2023-02-08T18:59:19.993Z,67.71
2023-02-08T19:02:26.489Z,67.78
2023-02-08T19:05:33.120Z,67.54
2023-02-08T19:08:41.252Z,67.40
2023-02-08T19:11:47.689Z,67.62
2023-02-08T19:14:54.037Z,67.61
2023-02-08T19:18:00.322Z,67.53
2023-02-08T19:21:08.177Z,67.80
2023-02-08T19:24:15.737Z,67.78
2023-02-08T19:27:22.091Z,67.68
2023-02-08T19:30:28.653Z,67.41
2023-02-08T19:33:35.040Z,67.34
2023-02-08T19:36:46.493Z,67.57
2023-02-08T19:39:52.856Z,67.57
2023-02-08T19:42:59.230Z,67.55
2023-02-08T19:46:11.545Z,67.80
2023-02-08T19:49:18.225Z,67.81
2023-02-08T19:52:24.506Z,67.83
2023-02-08T19:55:29.042Z,67.88
2023-02-08T19:58:36.166Z,67.85
2023-02-08T20:01:42.580Z,67.84
2023-02-08T20:04:48.837Z,67.63
2023-02-08T20:07:53.378Z,67.53
2023-02-08T20:10:59.649Z,67.78
2023-02-08T20:14:04.659Z,68.00
2023-02-08T20:17:10.945Z,67.79
2023-02-08T20:20:17.201Z,67.68
2023-02-08T20:23:22.921Z,68.00
2023-02-08T20:26:28.480Z,68.05
2023-02-08T20:29:34.975Z,68.04
2023-02-08T20:32:41.382Z,68.06
2023-02-08T20:35:47.560Z,68.06
2023-02-08T20:38:53.002Z,67.86
2023-02-08T20:41:59.246Z,67.80
2023-02-08T20:45:06.013Z,67.96
2023-02-08T20:48:12.124Z,67.94
2023-02-08T20:51:20.658Z,68.05
2023-02-08T20:54:27.081Z,68.00
2023-02-08T20:57:33.333Z,67.81
2023-02-08T21:00:42.325Z,67.78
2023-02-08T21:03:49.860Z,68.01
2023-02-08T21:06:56.142Z,68.16
2023-02-08T21:10:04.085Z,68.22
2023-02-08T21:13:10.506Z,67.85
2023-02-08T21:16:17.437Z,67.82
2023-02-08T21:19:24.374Z,68.08
2023-02-08T21:22:30.592Z,68.19
2023-02-08T21:25:35.115Z,68.14
2023-02-08T21:28:41.841Z,68.17
2023-02-08T21:31:51.838Z,68.20
2023-02-08T21:34:58.188Z,68.25
2023-02-08T21:38:05.858Z,68.26
2023-02-08T21:41:14.547Z,68.34
2023-02-08T21:44:21.342Z,68.41
2023-02-08T21:47:27.722Z,68.21
2023-02-08T21:50:51.593Z,68.33
2023-02-08T21:54:15.094Z,68.38
2023-02-08T21:57:23.543Z,68.42
2023-02-08T22:00:29.824Z,68.34
2023-02-08T22:03:36.121Z,68.42
2023-02-08T22:06:48.801Z,68.47
2023-02-08T22:09:55.185Z,68.38
2023-02-08T22:13:01.771Z,68.05
2023-02-08T22:16:12.422Z,68.22
2023-02-08T22:19:18.796Z,68.28
2023-02-08T22:22:25.353Z,68.38
2023-02-08T22:25:31.801Z,68.53
2023-02-08T22:28:38.224Z,68.31
2023-02-08T22:31:44.656Z,68.41
2023-02-08T22:34:51.371Z,68.34
2023-02-08T22:37:57.954Z,68.54
2023-02-08T22:41:09.923Z,68.65
2023-02-08T22:44:16.745Z,68.72
2023-02-08T22:47:23.303Z,68.53
2023-02-08T22:50:29.618Z,68.47
2023-02-08T22:53:35.922Z,68.53
2023-02-08T22:56:42.471Z,68.63
2023-02-08T22:59:48.880Z,68.70
2023-02-08T23:02:55.152Z,68.79
2023-02-08T23:06:01.555Z,68.88
2023-02-08T23:09:09.061Z,68.72
2023-02-08T23:12:15.576Z,68.55
2023-02-08T23:15:22.317Z,68.57
2023-02-08T23:18:28.776Z,68.62
2023-02-08T23:21:35.282Z,68.62
2023-02-08T23:24:41.585Z,68.56
2023-02-08T23:27:48.746Z,68.66
2023-02-08T23:30:55.090Z,68.68
2023-02-08T23:34:02.176Z,68.56
2023-02-08T23:37:08.390Z,68.55
2023-02-08T23:40:15.714Z,68.68
2023-02-08T23:43:21.877Z,68.69
2023-02-08T23:46:27.421Z,68.52
2023-02-08T23:49:33.718Z,68.71
2023-02-08T23:52:40.371Z,68.80
2023-02-08T23:55:46.594Z,68.78
2023-02-08T23:58:54.601Z,68.75
